createdAt,value
2022-07-26T00:02:20.436Z,23.70
2022-07-26T00:06:25.970Z,23.60
2022-07-26T00:10:34.057Z,23.60
2022-07-26T00:14:39.552Z,23.60
2022-07-26T00:18:47.733Z,23.60
2022-07-26T00:22:53.081Z,23.60
2022-07-26T00:27:01.153Z,23.50
2022-07-26T00:31:06.839Z,23.40
2022-07-26T00:35:12.797Z,23.40
2022-07-26T00:39:18.144Z,23.30
2022-07-26T00:43:26.141Z,23.20
2022-07-26T00:47:31.481Z,23.10
2022-07-26T00:51:36.879Z,23.00
2022-07-26T00:55:42.613Z,23.00
2022-07-26T00:59:51.072Z,22.90
2022-07-26T01:03:57.510Z,22.70
2022-07-26T01:08:03.063Z,22.60
2022-07-26T01:12:09.135Z,22.50
2022-07-26T01:16:17.298Z,22.40
2022-07-26T01:20:22.865Z,22.20
2022-07-26T01:24:30.951Z,22.00
2022-07-26T01:28:40.548Z,21.90
2022-07-26T01:32:45.906Z,21.80
2022-07-26T01:36:51.649Z,21.70
2022-07-26T01:40:59.598Z,21.70
2022-07-26T01:45:05.349Z,21.60
2022-07-26T01:49:11.186Z,21.70
2022-07-26T01:53:16.583Z,21.70
2022-07-26T01:57:24.528Z,21.70
2022-07-26T02:01:39.384Z,21.70
2022-07-26T02:05:45.526Z,21.80
2022-07-26T02:09:50.917Z,21.70
2022-07-26T02:14:00.702Z,21.70
2022-07-26T02:18:06.139Z,21.70
2022-07-26T02:22:11.696Z,21.70
2022-07-26T02:26:17.140Z,21.80
2022-07-26T02:30:25.412Z,21.80
2022-07-26T02:34:33.815Z,21.70
2022-07-26T02:38:39.499Z,21.70
2022-07-26T02:42:44.913Z,21.70
2022-07-26T02:46:53.078Z,21.60
2022-07-26T02:50:58.471Z,21.60
2022-07-26T02:55:03.903Z,21.50
2022-07-26T02:59:10.391Z,21.40
2022-07-26T03:03:18.493Z,21.30
2022-07-26T03:07:23.827Z,21.40
2022-07-26T03:11:29.214Z,21.30
2022-07-26T03:15:34.728Z,21.30
2022-07-26T03:19:42.706Z,21.30
2022-07-26T03:23:48.080Z,21.20
2022-07-26T03:27:53.495Z,21.20
2022-07-26T03:31:59.481Z,21.30
2022-07-26T03:36:11.463Z,21.30
2022-07-26T03:40:21.425Z,21.30
2022-07-26T03:44:26.855Z,21.30
2022-07-26T03:48:34.009Z,21.30
2022-07-26T03:52:42.278Z,21.30
2022-07-26T03:56:47.730Z,21.40
2022-07-26T04:00:53.224Z,21.40
2022-07-26T04:04:59.229Z,21.40
2022-07-26T04:09:08.188Z,21.50
2022-07-26T04:13:13.564Z,21.70
2022-07-26T04:17:19.007Z,21.70
2022-07-26T04:21:24.770Z,21.70
2022-07-26T04:25:40.686Z,21.80
2022-07-26T04:29:46.543Z,21.90
2022-07-26T04:33:51.952Z,21.90
2022-07-26T04:37:57.361Z,22.00
2022-07-26T04:42:05.356Z,22.20
2022-07-26T04:46:10.941Z,22.40
2022-07-26T04:50:16.727Z,22.70
2022-07-26T04:54:23.332Z,22.80
2022-07-26T04:58:31.449Z,23.00
2022-07-26T05:02:36.986Z,22.90
2022-07-26T05:06:43.477Z,23.00
2022-07-26T05:10:54.752Z,23.40
2022-07-26T05:15:04.398Z,23.80
2022-07-26T05:19:10.347Z,24.30
2022-07-26T05:23:16.965Z,24.70
2022-07-26T05:27:22.338Z,25.00
2022-07-26T05:31:30.624Z,25.20
2022-07-26T05:35:37.427Z,25.60
2022-07-26T05:39:43.174Z,25.90
2022-07-26T05:43:50.382Z,26.20
2022-07-26T05:47:58.676Z,26.40
2022-07-26T05:52:04.091Z,26.60
2022-07-26T05:56:10.403Z,26.90
2022-07-26T06:00:18.021Z,27.10
2022-07-26T06:04:26.706Z,27.50
2022-07-26T06:08:34.873Z,27.90
2022-07-26T06:12:41.558Z,28.30
2022-07-26T06:16:46.999Z,28.70
2022-07-26T06:20:56.004Z,29.10
2022-07-26T06:25:09.255Z,29.50
2022-07-26T06:29:14.688Z,29.70
2022-07-26T06:33:21.427Z,30.00
2022-07-26T06:37:29.615Z,30.30
2022-07-26T06:41:34.983Z,30.40
2022-07-26T06:45:42.977Z,30.70
2022-07-26T06:49:48.498Z,30.90
2022-07-26T06:53:56.466Z,31.20
2022-07-26T06:58:06.308Z,31.30
2022-07-26T07:02:12.175Z,31.40
2022-07-26T07:06:17.797Z,31.50
2022-07-26T07:10:27.001Z,31.50
2022-07-26T07:14:34.139Z,31.50
2022-07-26T07:18:39.526Z,31.70
2022-07-26T07:22:44.854Z,31.70
2022-07-26T07:26:52.977Z,31.90
2022-07-26T07:30:58.414Z,32.10
2022-07-26T07:35:03.747Z,32.30
2022-07-26T07:39:18.207Z,32.50
2022-07-26T07:43:26.442Z,32.60
2022-07-26T07:47:33.722Z,32.80
2022-07-26T07:51:39.153Z,32.90
2022-07-26T07:55:46.739Z,32.90
2022-07-26T07:59:55.301Z,32.80
2022-07-26T08:04:01.203Z,33.00
2022-07-26T08:08:06.735Z,33.00
2022-07-26T08:12:14.164Z,33.00
2022-07-26T08:16:22.722Z,33.00
2022-07-26T08:20:30.452Z,33.00
2022-07-26T08:24:36.309Z,33.00
2022-07-26T08:28:47.819Z,33.00
2022-07-26T08:32:56.500Z,33.10
2022-07-26T08:37:16.406Z,33.20
2022-07-26T08:41:23.420Z,33.20
2022-07-26T08:45:30.569Z,33.30
2022-07-26T08:49:38.530Z,33.30
2022-07-26T08:53:43.887Z,33.10
2022-07-26T08:57:49.409Z,33.20
2022-07-26T09:01:56.768Z,33.20
2022-07-26T09:06:15.019Z,33.30
2022-07-26T09:10:20.463Z,33.40
2022-07-26T09:14:38.435Z,33.60
2022-07-26T09:18:43.965Z,33.70
2022-07-26T09:23:06.082Z,33.80
2022-07-26T09:27:13.449Z,33.30
2022-07-26T09:31:26.011Z,33.40
2022-07-26T09:35:51.307Z,33.60
2022-07-26T09:40:03.284Z,33.80
2022-07-26T09:44:23.858Z,34.00
2022-07-26T09:48:52.306Z,34.00
2022-07-26T09:53:10.174Z,34.10
2022-07-26T09:57:21.738Z,34.20
2022-07-26T10:01:27.129Z,34.40
2022-07-26T10:05:32.820Z,34.60
2022-07-26T10:09:45.417Z,34.80
2022-07-26T10:13:53.519Z,35.00
2022-07-26T10:17:58.968Z,35.20
2022-07-26T10:22:25.506Z,35.60
2022-07-26T10:26:45.751Z,36.00
2022-07-26T10:30:53.897Z,36.30
2022-07-26T10:34:59.410Z,36.60
2022-07-26T10:39:11.419Z,36.80
2022-07-26T10:43:40.069Z,37.10
2022-07-26T10:48:14.468Z,37.60
2022-07-26T10:52:26.486Z,38.10
2022-07-26T10:56:34.822Z,38.40
2022-07-26T11:00:40.172Z,39.00
2022-07-26T11:04:51.001Z,39.40
2022-07-26T11:08:56.444Z,40.00
2022-07-26T11:13:03.508Z,40.20
2022-07-26T11:17:09.105Z,40.60
2022-07-26T11:21:20.148Z,40.80
2022-07-26T11:25:25.657Z,41.20
2022-07-26T11:29:40.731Z,41.70
2022-07-26T11:33:49.119Z,41.80
2022-07-26T11:38:11.858Z,42.30
2022-07-26T11:42:19.798Z,43.40
2022-07-26T11:46:25.683Z,45.80
2022-07-26T11:50:31.283Z,48.20
2022-07-26T11:54:48.734Z,50.30
2022-07-26T11:58:57.729Z,52.50
2022-07-26T12:03:03.084Z,53.90
2022-07-26T12:07:13.782Z,54.80
2022-07-26T12:11:23.141Z,56.20
2022-07-26T12:15:29.332Z,57.50
2022-07-26T12:19:35.776Z,58.20
2022-07-26T12:23:45.595Z,58.30
2022-07-26T12:27:53.598Z,58.60
2022-07-26T12:32:11.945Z,58.80
2022-07-26T12:36:27.157Z,59.30
2022-07-26T12:40:42.581Z,59.90
2022-07-26T12:44:50.605Z,60.10
2022-07-26T12:49:00.164Z,59.60
2022-07-26T12:53:08.854Z,60.10
2022-07-26T12:57:14.356Z,59.70
2022-07-26T13:01:22.448Z,59.40
2022-07-26T13:05:27.899Z,59.50
2022-07-26T13:09:33.539Z,60.00
2022-07-26T13:13:38.891Z,60.20
2022-07-26T13:17:46.953Z,59.60
2022-07-26T13:21:53.066Z,58.50
2022-07-26T13:25:58.687Z,58.00
2022-07-26T13:30:05.545Z,56.40
2022-07-26T13:34:14.162Z,56.20
2022-07-26T13:38:21.614Z,56.60
2022-07-26T13:42:27.124Z,55.50
2022-07-26T13:46:33.692Z,54.80
2022-07-26T13:50:41.908Z,53.20
2022-07-26T13:54:47.316Z,50.00
2022-07-26T13:58:52.778Z,46.40
2022-07-26T14:03:01.029Z,43.60
2022-07-26T14:07:08.994Z,41.70
2022-07-26T14:11:14.523Z,40.40
2022-07-26T14:15:23.168Z,39.60
2022-07-26T14:19:28.945Z,38.90
2022-07-26T14:23:36.961Z,38.30
2022-07-26T14:27:42.694Z,37.80
2022-07-26T14:31:48.193Z,37.40
2022-07-26T14:35:53.687Z,37.10
2022-07-26T14:40:01.762Z,36.90
2022-07-26T14:44:08.184Z,36.70
2022-07-26T14:48:26.824Z,36.40
2022-07-26T14:52:40.644Z,36.20
2022-07-26T14:56:49.209Z,36.10
2022-07-26T15:00:55.553Z,36.00
2022-07-26T15:05:02.062Z,36.00
2022-07-26T15:09:07.692Z,35.80
2022-07-26T15:13:16.075Z,35.60
2022-07-26T15:17:21.592Z,35.50
2022-07-26T15:21:27.433Z,35.30
2022-07-26T15:25:32.804Z,35.30
2022-07-26T15:29:41.119Z,35.30
2022-07-26T15:33:48.461Z,35.10
2022-07-26T15:37:53.953Z,35.10
2022-07-26T15:42:03.896Z,35.10
2022-07-26T15:46:14.817Z,35.00
2022-07-26T15:50:21.507Z,35.00
2022-07-26T15:54:29.526Z,34.80
2022-07-26T15:58:35.033Z,34.80
2022-07-26T16:02:44.351Z,34.70
2022-07-26T16:06:50.106Z,34.60
2022-07-26T16:10:58.039Z,34.50
2022-07-26T16:15:04.309Z,34.60
2022-07-26T16:19:12.899Z,34.40
2022-07-26T16:23:18.720Z,34.20
2022-07-26T16:27:28.467Z,34.30
2022-07-26T16:31:34.215Z,34.30
2022-07-26T16:35:42.374Z,34.20
2022-07-26T16:39:47.892Z,34.30
2022-07-26T16:43:53.349Z,34.20
2022-07-26T16:48:00.082Z,34.10
2022-07-26T16:52:09.291Z,34.10
2022-07-26T16:56:14.866Z,33.90
2022-07-26T17:00:22.454Z,33.90
2022-07-26T17:04:27.891Z,33.80
2022-07-26T17:08:36.314Z,33.80
2022-07-26T17:12:42.702Z,33.60
2022-07-26T17:16:50.327Z,33.60
2022-07-26T17:20:55.745Z,33.50
2022-07-26T17:25:03.750Z,33.40
2022-07-26T17:29:09.572Z,33.30
2022-07-26T17:33:15.254Z,33.20
2022-07-26T17:37:21.832Z,33.20
2022-07-26T17:41:32.632Z,33.00
2022-07-26T17:45:38.327Z,33.00
2022-07-26T17:49:43.894Z,32.80
2022-07-26T17:53:53.471Z,32.80
2022-07-26T17:58:01.684Z,32.70
2022-07-26T18:02:07.176Z,32.60
2022-07-26T18:06:12.864Z,32.50
2022-07-26T18:10:18.432Z,32.40
2022-07-26T18:14:26.476Z,32.20
2022-07-26T18:18:31.822Z,32.00
2022-07-26T18:22:37.254Z,31.80
2022-07-26T18:26:43.050Z,31.60
2022-07-26T18:30:51.129Z,31.50
2022-07-26T18:34:56.581Z,31.50
2022-07-26T18:39:02.539Z,31.40
2022-07-26T18:43:08.089Z,31.30
2022-07-26T18:47:16.107Z,31.20
2022-07-26T18:51:22.177Z,31.10
2022-07-26T18:55:32.169Z,30.90
2022-07-26T18:59:39.699Z,30.60
2022-07-26T19:03:47.855Z,30.40
2022-07-26T19:07:54.100Z,30.30
2022-07-26T19:11:59.794Z,30.30
2022-07-26T19:16:05.274Z,30.20
2022-07-26T19:20:14.845Z,30.00
2022-07-26T19:24:20.829Z,29.90
2022-07-26T19:28:29.250Z,29.90
2022-07-26T19:32:36.665Z,29.80
2022-07-26T19:36:46.325Z,29.60
2022-07-26T19:40:56.991Z,29.50
2022-07-26T19:45:04.042Z,29.40
2022-07-26T19:49:11.283Z,29.30
2022-07-26T19:53:19.567Z,29.30
2022-07-26T19:57:27.854Z,29.20
2022-07-26T20:01:41.606Z,29.10
2022-07-26T20:05:47.357Z,29.10
2022-07-26T20:09:55.499Z,29.00
2022-07-26T20:14:19.412Z,29.00
2022-07-26T20:18:28.864Z,28.90
2022-07-26T20:22:34.359Z,28.80
2022-07-26T20:26:43.960Z,28.80
2022-07-26T20:30:51.786Z,28.60
2022-07-26T20:34:57.625Z,28.60
2022-07-26T20:39:03.383Z,28.60
2022-07-26T20:43:11.395Z,28.50
2022-07-26T20:47:19.188Z,28.40
2022-07-26T20:51:27.310Z,28.40
2022-07-26T20:55:32.958Z,28.30
2022-07-26T20:59:41.077Z,28.20
2022-07-26T21:03:47.647Z,28.20
2022-07-26T21:07:58.797Z,28.00
2022-07-26T21:12:05.077Z,27.90
2022-07-26T21:16:14.214Z,27.70
2022-07-26T21:20:20.210Z,27.50
2022-07-26T21:24:26.235Z,27.40
2022-07-26T21:28:31.740Z,27.30
2022-07-26T21:32:39.835Z,27.20
2022-07-26T21:36:45.252Z,27.10
2022-07-26T21:40:51.620Z,27.10
2022-07-26T21:44:56.976Z,27.10
2022-07-26T21:49:05.085Z,27.10
2022-07-26T21:53:10.511Z,27.00
2022-07-26T21:57:15.914Z,27.00
2022-07-26T22:01:21.299Z,26.90
2022-07-26T22:05:38.390Z,26.80
2022-07-26T22:09:43.794Z,26.80
2022-07-26T22:13:49.164Z,26.70
2022-07-26T22:17:55.225Z,26.70
2022-07-26T22:22:05.780Z,26.70
2022-07-26T22:26:11.141Z,26.70
2022-07-26T22:30:18.388Z,26.60
2022-07-26T22:34:23.715Z,26.60
2022-07-26T22:38:31.719Z,26.50
2022-07-26T22:42:37.093Z,26.40
2022-07-26T22:46:42.556Z,26.30
2022-07-26T22:50:48.063Z,26.20
2022-07-26T22:54:56.069Z,26.20
2022-07-26T22:59:01.471Z,26.10
2022-07-26T23:03:11.828Z,26.00
2022-07-26T23:07:25.838Z,26.00
2022-07-26T23:11:33.862Z,25.90
2022-07-26T23:15:39.380Z,25.90
2022-07-26T23:19:45.087Z,25.80
2022-07-26T23:23:50.578Z,25.80
2022-07-26T23:27:59.379Z,25.80
2022-07-26T23:32:05.171Z,25.80
2022-07-26T23:36:10.790Z,25.70
2022-07-26T23:40:16.458Z,25.70
2022-07-26T23:44:24.531Z,25.60
2022-07-26T23:48:30.022Z,25.50
2022-07-26T23:52:35.430Z,25.40
2022-07-26T23:56:40.781Z,25.20
